Date,TemperatureHighF,TemperatureAvgF,TemperatureLowF,DewpointHighF,DewpointAvgF,DewpointLowF,HumidityHigh,HumidityAvg,HumidityLow,PressureMaxIn,PressureMinIn,WindSpeedMaxMPH,WindSpeedAvgMPH,GustSpeedMaxMPH,PrecipitationSumIn
2013-2-1,23,16,8,9,2,-3,68,54,41,0.00,40.00,9,4,22,0.01
2013-2-2,21,13,1,11,2,-6,85,63,44,0.00,40.00,5,2,12,0.00
2013-2-3,29,14,2,12,5,-3,85,69,39,0.00,40.00,3,1,7,0.00
2013-2-4,21,13,6,9,2,-11,83,62,37,0.00,40.00,10,3,24,0.00
2013-2-5,19,6,-10,0,-9,-16,73,52,25,0.00,40.00,4,2,11,0.00
2013-2-6,29,17,7,23,5,-10,81,61,31,0.00,40.00,5,2,16,0.00
2013-2-7,16,5,-6,-8,-12,-17,73,48,23,0.00,40.00,4,2,9,0.00
2013-2-8,22,15,9,15,6,-9,84,69,41,0.00,40.00,3,2,11,0.00
2013-2-9,15,10,1,10,4,-5,82,73,62,0.00,40.00,4,3,12,0.00
2013-2-10,26,6,-17,9,-5,-25,80,63,31,0.00,40.00,3,1,7,0.00
2013-2-11,28,12,-4,28,7,-10,99,81,74,0.00,40.00,2,1,6,0.00
2013-2-12,36,32,28,32,28,25,100,87,73,0.00,40.00,5,2,17,0.00
2013-2-13,35,31,26,27,23,21,87,75,56,0.00,40.00,5,2,11,0.09
2013-2-14,35,28,22,24,21,18,89,76,50,0.00,40.00,3,1,10,0.05
2013-2-15,45,30,20,30,22,16,87,74,45,0.00,40.00,6,2,15,0.13
2013-2-16,34,26,18,25,16,4,90,67,44,0.00,40.00,2,1,6,0.06
2013-2-17,18,14,10,5,1,-2,67,57,47,0.00,40.00,5,3,13,0.01
2013-2-18,26,10,-1,2,-5,-11,65,51,20,0.00,40.00,7,4,17,0.00
2013-2-19,42,22,-5,27,6,-12,80,53,20,0.00,40.00,3,2,10,0.08
2013-2-20,32,26,22,31,19,12,99,75,58,0.00,40.00,7,3,18,0.02
2013-2-21,23,17,10,14,8,0,79,67,57,0.00,40.00,6,2,17,0.00
2013-2-22,40,25,8,23,17,4,84,72,47,0.00,40.00,3,1,6,0.15
2013-2-23,36,29,21,31,24,17,100,80,60,0.00,40.00,3,1,7,0.05
2013-2-24,38,32,30,32,30,29,100,93,80,0.00,40.00,1,1,5,0.12
2013-2-25,41,33,29,31,30,28,100,89,66,0.00,40.00,2,1,5,0.15
2013-2-26,43,32,23,30,27,21,94,83,52,0.00,40.00,2,1,5,0.15
2013-2-27,40,33,28,28,25,22,89,74,60,0.00,40.00,6,3,16,0.09
2013-2-28,49,36,30,33,29,25,100,76,51,0.00,40.00,2,1,7,0.02